Time;durP1;ratioP1;P1;durP2;ratioP2;P2;SDS_P1;SDS_P2;PMS_P1;PMS_P2;Temp;Humidity;BMP_temperature;BMP_pressure;BME280_temperature;BME280_humidity;BME280_pressure;Samples;Min_cycle;Max_cycle;Signal;HPM_P1;HPM_P2
2022/05/20 00:01:58;;;;;;;5.90;1.13;;;;;;;;;;7388376;19;19999;-78
2022/05/20 00:04:23;;;;;;;2.20;1.15;;;;;;;;;;7388138;19;20138;-78
2022/05/20 00:06:48;;;;;;;2.13;1.10;;;;;;;;;;7388497;19;20350;-78
2022/05/20 00:09:14;;;;;;;6.68;1.30;;;;;;;;;;7388994;19;20073;-78
2022/05/20 00:11:39;;;;;;;3.53;1.17;;;;;;;;;;7387976;19;20121;-79
2022/05/20 00:14:05;;;;;;;2.95;1.30;;;;;;;;;;7386397;19;20043;-78
2022/05/20 00:16:31;;;;;;;7.75;1.05;;;;;;;;;;7390127;19;20657;-79
2022/05/20 00:18:56;;;;;;;1.23;1.00;;;;;;;;;;7388978;19;20343;-78
2022/05/20 00:21:21;;;;;;;1.98;1.27;;;;;;;;;;7385441;19;20453;-78
2022/05/20 00:23:47;;;;;;;3.13;1.30;;;;;;;;;;7387276;19;20020;-77
2022/05/20 00:26:12;;;;;;;2.38;1.23;;;;;;;;;;7390117;19;20021;-78
2022/05/20 00:28:37;;;;;;;4.43;1.10;;;;;;;;;;7387281;19;20003;-78
2022/05/20 00:31:06;;;;;;;2.28;1.17;;;;;;;;;;7386886;19;20127;-77
2022/05/20 00:33:33;;;;;;;2.22;1.15;;;;;;;;;;7384770;19;20522;-78
2022/05/20 00:35:58;;;;;;;1.67;1.10;;;;;;;;;;7386797;19;20399;-78
2022/05/20 00:38:24;;;;;;;2.92;1.13;;;;;;;;;;7388517;19;20434;-78
2022/05/20 00:40:51;;;;;;;3.15;1.15;;;;;;;;;;7387606;19;20048;-77
2022/05/20 00:43:26;;;;;;;3.95;1.45;;;;;;;;;;7386140;19;20031;-77
2022/05/20 00:45:56;;;;;;;2.88;1.48;;;;;;;;;;7389054;19;20010;-77
2022/05/20 00:48:22;;;;;;;3.17;1.30;;;;;;;;;;7385907;19;20010;-78
2022/05/20 00:50:56;;;;;;;1.20;1.10;;;;;;;;;;7388060;19;20024;-78
2022/05/20 00:53:23;;;;;;;2.50;1.00;;;;;;;;;;7389637;19;20019;-78
2022/05/20 00:55:49;;;;;;;4.05;0.90;;;;;;;;;;7390158;19;20018;-78
2022/05/20 00:58:23;;;;;;;1.77;0.98;;;;;;;;;;7390921;19;20021;-78
2022/05/20 01:00:54;;;;;;;2.13;0.90;;;;;;;;;;7385329;19;20047;-78
2022/05/20 01:03:24;;;;;;;3.30;1.40;;;;;;;;;;7384347;19;20010;-78
2022/05/20 01:05:50;;;;;;;2.15;1.30;;;;;;;;;;7389264;19;20014;-77
2022/05/20 01:08:19;;;;;;;3.47;1.13;;;;;;;;;;7391521;19;20018;-79
2022/05/20 01:10:44;;;;;;;2.42;1.25;;;;;;;;;;7392036;19;19998;-78
2022/05/20 01:13:12;;;;;;;2.33;1.20;;;;;;;;;;7386798;19;20022;-78
2022/05/20 01:15:38;;;;;;;4.00;1.55;;;;;;;;;;7392674;19;20038;-78
2022/05/20 01:18:04;;;;;;;2.85;1.67;;;;;;;;;;7392168;19;20014;-79
2022/05/20 01:20:33;;;;;;;1.40;1.25;;;;;;;;;;7391769;19;20031;-78
2022/05/20 01:22:58;;;;;;;4.70;1.52;;;;;;;;;;7392667;19;20469;-78
2022/05/20 01:25:26;;;;;;;2.28;1.20;;;;;;;;;;7395668;19;20031;-78
2022/05/20 01:27:52;;;;;;;1.85;1.27;;;;;;;;;;7395586;19;20010;-78
2022/05/20 01:30:22;;;;;;;3.60;1.35;;;;;;;;;;7395020;19;20864;-79
2022/05/20 01:32:48;;;;;;;5.18;1.38;;;;;;;;;;7390242;19;20014;-78
2022/05/20 01:35:27;;;;;;;5.22;1.48;;;;;;;;;;7394549;19;20376;-78
2022/05/20 01:37:52;;;;;;;3.72;1.60;;;;;;;;;;7396877;19;20349;-78
2022/05/20 01:40:18;;;;;;;2.38;1.40;;;;;;;;;;7394020;19;20022;-78
2022/05/20 01:42:55;;;;;;;6.05;1.42;;;;;;;;;;7394296;19;20014;-79
2022/05/20 01:45:28;;;;;;;2.38;1.23;;;;;;;;;;7393387;19;20003;-78
2022/05/20 01:48:05;;;;;;;4.32;1.38;;;;;;;;;;7394850;19;20461;-78
2022/05/20 01:50:37;;;;;;;3.70;1.48;;;;;;;;;;7393368;19;20648;-78
2022/05/20 01:53:12;;;;;;;5.22;1.40;;;;;;;;;;7392464;19;20031;-78
2022/05/20 01:55:40;;;;;;;;;;;;;;;;;;7395713;19;20002;-78
2022/05/20 01:58:17;;;;;;;1.25;1.02;;;;;;;;;;7391540;19;19929;-78
2022/05/20 02:00:45;;;;;;;4.07;1.02;;;;;;;;;;7391646;19;20349;-78
2022/05/20 02:03:20;;;;;;;1.92;1.08;;;;;;;;;;7390146;19;20034;-78
2022/05/20 02:05:54;;;;;;;2.05;1.10;;;;;;;;;;7391112;19;20090;-78
2022/05/20 02:08:29;;;;;;;3.53;1.20;;;;;;;;;;7393693;19;20022;-78
2022/05/20 02:11:11;;;;;;;2.67;1.20;;;;;;;;;;7393705;19;20006;-78
2022/05/20 02:13:42;;;;;;;3.25;1.40;;;;;;;;;;7390343;19;20044;-78
2022/05/20 02:16:31;;;;;;;0.88;0.88;;;;;;;;;;7392816;19;20015;-79
2022/05/20 02:19:10;;;;;;;3.10;1.50;;;;;;;;;;7393316;19;20006;-78
2022/05/20 02:21:40;;;;;;;0.90;0.90;;;;;;;;;;7393039;19;20091;-78
2022/05/20 02:24:09;;;;;;;4.78;1.40;;;;;;;;;;7391132;19;20011;-78
2022/05/20 02:26:45;;;;;;;1.40;1.27;;;;;;;;;;7394160;19;20515;-78
2022/05/20 02:29:16;;;;;;;1.60;0.95;;;;;;;;;;7392164;19;20477;-78
2022/05/20 02:31:47;;;;;;;1.58;1.02;;;;;;;;;;7389531;19;20010;-79
2022/05/20 02:34:12;;;;;;;3.05;1.30;;;;;;;;;;7388162;19;20014;-78
2022/05/20 02:36:38;;;;;;;1.98;1.15;;;;;;;;;;7394743;19;20332;-78
2022/05/20 02:39:06;;;;;;;1.60;1.27;;;;;;;;;;7393177;19;20474;-78
2022/05/20 02:41:32;;;;;;;2.65;1.10;;;;;;;;;;7389705;19;20011;-78
2022/05/20 02:43:58;;;;;;;1.17;0.95;;;;;;;;;;7391048;19;20066;-78
2022/05/20 02:46:23;;;;;;;3.72;1.35;;;;;;;;;;7392733;19;20418;-78
2022/05/20 02:48:49;;;;;;;1.98;1.20;;;;;;;;;;7390184;19;20063;-78
2022/05/20 02:51:16;;;;;;;1.85;1.25;;;;;;;;;;7387845;19;20367;-78
2022/05/20 02:53:42;;;;;;;2.30;1.38;;;;;;;;;;7387956;19;20501;-78
2022/05/20 02:56:07;;;;;;;2.22;1.33;;;;;;;;;;7393527;19;20012;-78
2022/05/20 03:04:10;;;;;;;0.93;0.90;;;;;;;;;;7388692;19;20021;-78
2022/05/20 03:06:45;;;;;;;1.60;1.17;;;;;;;;;;7392140;19;20027;-78
2022/05/20 03:09:12;;;;;;;1.48;1.00;;;;;;;;;;7392814;19;20505;-79
2022/05/20 03:11:39;;;;;;;1.77;1.30;;;;;;;;;;7390872;19;20009;-78
2022/05/20 03:14:06;;;;;;;1.75;1.30;;;;;;;;;;7386519;19;20357;-79
2022/05/20 03:16:32;;;;;;;3.85;1.30;;;;;;;;;;7388450;19;20434;-78
2022/05/20 03:18:57;;;;;;;1.75;1.50;;;;;;;;;;7391726;19;20087;-78
2022/05/20 03:21:23;;;;;;;3.90;1.80;;;;;;;;;;7389206;19;20643;-78
2022/05/20 03:23:48;;;;;;;1.60;1.20;;;;;;;;;;7391473;19;20020;-78
2022/05/20 03:26:15;;;;;;;1.60;1.20;;;;;;;;;;7391897;19;20007;-78
2022/05/20 03:28:42;;;;;;;5.07;1.45;;;;;;;;;;7392398;19;20094;-79
2022/05/20 03:31:09;;;;;;;1.90;1.10;;;;;;;;;;7389071;19;20019;-79
2022/05/20 03:33:36;;;;;;;2.55;1.50;;;;;;;;;;7386716;19;20081;-78
2022/05/20 03:36:01;;;;;;;2.75;1.35;;;;;;;;;;7391965;19;20042;-78
2022/05/20 03:38:26;;;;;;;1.27;1.10;;;;;;;;;;7391965;19;20447;-79
2022/05/20 03:40:52;;;;;;;2.10;1.38;;;;;;;;;;7389243;19;20002;-78
2022/05/20 03:43:17;;;;;;;3.28;1.52;;;;;;;;;;7391288;19;20492;-79
2022/05/20 03:45:42;;;;;;;3.75;1.70;;;;;;;;;;7390422;19;19999;-78
2022/05/20 03:48:08;;;;;;;2.60;1.60;;;;;;;;;;7392178;19;20017;-79
2022/05/20 03:50:34;;;;;;;4.18;1.50;;;;;;;;;;7387945;19;20066;-79
2022/05/20 03:52:59;;;;;;;3.92;1.20;;;;;;;;;;7392479;19;20662;-79
2022/05/20 03:55:25;;;;;;;2.78;1.27;;;;;;;;;;7390681;19;20024;-80
2022/05/20 03:57:51;;;;;;;3.17;1.25;;;;;;;;;;7392490;19;20464;-80
2022/05/20 04:00:17;;;;;;;1.88;1.42;;;;;;;;;;7390202;19;20010;-80
2022/05/20 04:02:42;;;;;;;2.78;1.42;;;;;;;;;;7390055;19;20358;-79
2022/05/20 04:05:08;;;;;;;3.58;1.55;;;;;;;;;;7387886;19;20419;-79
2022/05/20 04:07:33;;;;;;;6.13;1.58;;;;;;;;;;7387203;19;20021;-78
2022/05/20 04:09:59;;;;;;;4.60;1.30;;;;;;;;;;7385604;19;20006;-78
2022/05/20 04:12:31;;;;;;;2.55;1.40;;;;;;;;;;7384970;19;20368;-79
2022/05/20 04:14:56;;;;;;;1.50;1.10;;;;;;;;;;7391625;19;20007;-79
2022/05/20 04:17:22;;;;;;;2.20;1.90;;;;;;;;;;7386346;19;20012;-80
2022/05/20 04:19:48;;;;;;;1.75;1.30;;;;;;;;;;7392067;19;20023;-79
2022/05/20 04:22:16;;;;;;;1.42;1.23;;;;;;;;;;7389124;19;20070;-79
2022/05/20 04:24:41;;;;;;;3.63;1.38;;;;;;;;;;7391752;19;20073;-79
2022/05/20 04:27:06;;;;;;;4.88;1.35;;;;;;;;;;7389678;19;20014;-80
2022/05/20 04:29:32;;;;;;;2.22;1.23;;;;;;;;;;7390605;19;20013;-79
2022/05/20 04:31:57;;;;;;;4.82;1.63;;;;;;;;;;7382768;19;20459;-78
2022/05/20 04:34:22;;;;;;;3.35;1.60;;;;;;;;;;7388059;19;20074;-77
2022/05/20 04:36:48;;;;;;;3.65;1.35;;;;;;;;;;7385579;19;20020;-76
2022/05/20 04:39:13;;;;;;;2.60;1.30;;;;;;;;;;7380784;19;20130;-77
2022/05/20 04:47:16;;;;;;;3.75;1.75;;;;;;;;;;7383065;19;20020;-76
2022/05/20 04:49:42;;;;;;;3.20;1.38;;;;;;;;;;7383608;19;20503;-76
2022/05/20 04:52:08;;;;;;;2.30;1.50;;;;;;;;;;7383510;19;20140;-75
2022/05/20 04:57:29;;;;;;;4.30;1.85;;;;;;;;;;7393978;19;20023;-75
2022/05/20 05:00:07;;;;;;;1.88;1.33;;;;;;;;;;7395773;19;20010;-75
2022/05/20 05:02:33;;;;;;;2.10;1.40;;;;;;;;;;7392642;19;20022;-77
2022/05/20 05:04:58;;;;;;;2.15;1.60;;;;;;;;;;7392854;19;20006;-75
2022/05/20 05:07:24;;;;;;;2.72;1.60;;;;;;;;;;7394950;19;20013;-76
2022/05/20 05:09:50;;;;;;;2.08;1.45;;;;;;;;;;7395607;19;20011;-76
2022/05/20 05:12:16;;;;;;;5.40;2.00;;;;;;;;;;7393435;19;20035;-76
2022/05/20 05:14:48;;;;;;;2.10;1.90;;;;;;;;;;7396055;19;20419;-76
2022/05/20 05:17:16;;;;;;;4.10;2.15;;;;;;;;;;7397649;19;20020;-77
2022/05/20 05:19:44;;;;;;;4.60;1.60;;;;;;;;;;7395967;19;20007;-77
2022/05/20 05:22:10;;;;;;;3.10;2.15;;;;;;;;;;7390307;19;20031;-77
2022/05/20 05:24:37;;;;;;;3.25;1.60;;;;;;;;;;7393787;19;20006;-76
2022/05/20 05:27:03;;;;;;;7.38;2.08;;;;;;;;;;7392192;19;20512;-77
2022/05/20 05:29:28;;;;;;;6.53;1.88;;;;;;;;;;7393579;19;20010;-77
2022/05/20 05:31:54;;;;;;;2.17;1.63;;;;;;;;;;7389220;19;20017;-77
2022/05/20 05:34:19;;;;;;;3.80;1.70;;;;;;;;;;7392000;19;20349;-77
2022/05/20 05:36:45;;;;;;;9.52;1.77;;;;;;;;;;7392779;19;20035;-77
2022/05/20 05:39:10;;;;;;;5.97;1.95;;;;;;;;;;7392638;19;20031;-77
2022/05/20 05:41:36;;;;;;;6.10;1.77;;;;;;;;;;7391898;19;20023;-77
2022/05/20 05:44:03;;;;;;;3.70;1.70;;;;;;;;;;7394741;19;20461;-77
2022/05/20 05:46:30;;;;;;;2.67;1.73;;;;;;;;;;7388532;19;20014;-77
2022/05/20 05:48:55;;;;;;;4.25;1.90;;;;;;;;;;7395631;19;20442;-76
2022/05/20 05:51:20;;;;;;;3.30;1.63;;;;;;;;;;7388738;19;20021;-77
2022/05/20 05:53:46;;;;;;;3.28;1.67;;;;;;;;;;7392923;19;20006;-76
2022/05/20 05:56:11;;;;;;;3.42;1.80;;;;;;;;;;7392125;19;20035;-77
2022/05/20 05:58:37;;;;;;;2.40;1.70;;;;;;;;;;7394178;19;19997;-77
2022/05/20 06:01:03;;;;;;;2.15;1.48;;;;;;;;;;7390195;19;20010;-77
2022/05/20 06:03:29;;;;;;;3.92;1.90;;;;;;;;;;7389592;19;20021;-77
2022/05/20 06:05:55;;;;;;;3.13;1.90;;;;;;;;;;7388748;19;20017;-77
2022/05/20 06:08:20;;;;;;;5.30;1.80;;;;;;;;;;7394712;19;20026;-77
2022/05/20 06:10:46;;;;;;;5.65;2.00;;;;;;;;;;7392853;19;20010;-76
2022/05/20 06:13:12;;;;;;;2.55;1.70;;;;;;;;;;7393149;19;20006;-77
2022/05/20 06:15:40;;;;;;;5.68;1.50;;;;;;;;;;7390487;19;20007;-77
2022/05/20 06:18:06;;;;;;;2.40;1.70;;;;;;;;;;7393285;19;20026;-77
2022/05/20 06:20:32;;;;;;;3.17;1.52;;;;;;;;;;7388047;19;20018;-77
2022/05/20 06:22:57;;;;;;;3.22;1.98;;;;;;;;;;7393914;19;20031;-77
2022/05/20 06:25:23;;;;;;;3.30;1.60;;;;;;;;;;7390816;19;20007;-77
2022/05/20 06:27:48;;;;;;;1.90;1.55;;;;;;;;;;7393359;19;20015;-77
2022/05/20 06:30:18;;;;;;;2.30;1.40;;;;;;;;;;7390932;19;20133;-77
2022/05/20 06:32:43;;;;;;;4.47;1.60;;;;;;;;;;7390053;19;20406;-77
2022/05/20 06:40:48;;;;;;;3.00;1.60;;;;;;;;;;7390950;19;20025;-77
2022/05/20 06:43:16;;;;;;;2.38;1.63;;;;;;;;;;7393132;19;20007;-77
2022/05/20 06:45:45;;;;;;;3.45;1.50;;;;;;;;;;7388958;19;20010;-77
2022/05/20 06:48:10;;;;;;;3.72;1.30;;;;;;;;;;7394533;19;20002;-77
2022/05/20 06:50:37;;;;;;;2.00;1.48;;;;;;;;;;7391351;19;20017;-77
2022/05/20 06:53:03;;;;;;;5.60;1.55;;;;;;;;;;7388649;19;20031;-77
2022/05/20 06:55:29;;;;;;;3.05;1.50;;;;;;;;;;7392683;19;20018;-77
2022/05/20 06:57:54;;;;;;;2.67;1.65;;;;;;;;;;7393057;19;20002;-77
2022/05/20 07:00:19;;;;;;;1.67;1.30;;;;;;;;;;7391919;19;20010;-77
2022/05/20 07:02:45;;;;;;;3.10;1.38;;;;;;;;;;7391524;19;20303;-77
2022/05/20 07:05:10;;;;;;;6.07;1.40;;;;;;;;;;7390973;19;20678;-77
2022/05/20 07:07:36;;;;;;;3.30;1.60;;;;;;;;;;7376455;19;20010;-77
2022/05/20 07:10:02;;;;;;;4.72;1.40;;;;;;;;;;7388594;19;20015;-77
2022/05/20 07:12:27;;;;;;;2.67;1.48;;;;;;;;;;7394533;19;20007;-77
2022/05/20 07:14:53;;;;;;;2.08;1.30;;;;;;;;;;7400880;19;19999;-78
2022/05/20 07:17:20;;;;;;;5.32;1.50;;;;;;;;;;7393892;19;20006;-77
2022/05/20 07:19:45;;;;;;;1.55;1.40;;;;;;;;;;7401071;19;20460;-77
2022/05/20 07:22:11;;;;;;;2.30;1.40;;;;;;;;;;7401191;19;20014;-79
2022/05/20 07:24:37;;;;;;;2.10;1.20;;;;;;;;;;7395461;19;20470;-79
2022/05/20 07:27:02;;;;;;;5.57;1.70;;;;;;;;;;7398652;19;20015;-79
2022/05/20 07:29:28;;;;;;;2.78;1.63;;;;;;;;;;7403040;19;20006;-79
2022/05/20 07:31:53;;;;;;;2.67;1.40;;;;;;;;;;7395271;19;20031;-79
2022/05/20 07:34:18;;;;;;;5.05;1.40;;;;;;;;;;7393859;19;20047;-79
2022/05/20 07:36:43;;;;;;;1.45;1.08;;;;;;;;;;7384786;19;20015;-78
2022/05/20 07:39:09;;;;;;;1.73;1.48;;;;;;;;;;7398162;19;20018;-80
2022/05/20 07:41:35;;;;;;;2.53;1.40;;;;;;;;;;7396720;19;20023;-79
2022/05/20 07:44:01;;;;;;;1.88;1.50;;;;;;;;;;7395267;19;20010;-77
2022/05/20 07:46:27;;;;;;;2.95;1.40;;;;;;;;;;7386066;19;20057;-76
2022/05/20 07:48:52;;;;;;;3.85;1.30;;;;;;;;;;7383357;19;20035;-77
2022/05/20 07:51:21;;;;;;;1.88;1.33;;;;;;;;;;7386239;19;20010;-76
2022/05/20 07:53:58;;;;;;;3.90;1.77;;;;;;;;;;7389014;19;20021;-76
2022/05/20 07:56:26;;;;;;;3.60;1.58;;;;;;;;;;7390176;19;20006;-76
2022/05/20 07:59:14;;;;;;;2.10;1.40;;;;;;;;;;7390101;19;20030;-76
2022/05/20 08:01:42;;;;;;;3.65;1.20;;;;;;;;;;7381746;19;20338;-76
2022/05/20 08:07:02;;;;;;;4.75;1.40;;;;;;;;;;7387568;19;20025;-76
2022/05/20 08:09:28;;;;;;;2.40;1.30;;;;;;;;;;7390409;19;20026;-76
2022/05/20 08:11:53;;;;;;;2.30;1.27;;;;;;;;;;7387615;19;20006;-76
2022/05/20 08:14:19;;;;;;;2.85;1.13;;;;;;;;;;7388811;19;20446;-76
2022/05/20 08:16:44;;;;;;;3.63;1.35;;;;;;;;;;7389481;19;20023;-77
2022/05/20 08:19:09;;;;;;;2.78;1.17;;;;;;;;;;7390084;19;20536;-76
2022/05/20 08:21:35;;;;;;;1.75;1.45;;;;;;;;;;7385592;19;20029;-77
2022/05/20 08:24:00;;;;;;;5.05;1.50;;;;;;;;;;7389363;19;20009;-76
2022/05/20 08:26:26;;;;;;;1.60;1.35;;;;;;;;;;7389625;19;20482;-76
2022/05/20 08:28:51;;;;;;;4.10;1.40;;;;;;;;;;7390370;19;20006;-76
2022/05/20 08:31:17;;;;;;;1.60;1.10;;;;;;;;;;7385428;19;20006;-76
2022/05/20 08:33:43;;;;;;;1.48;1.30;;;;;;;;;;7388776;19;20018;-77
2022/05/20 08:36:09;;;;;;;1.55;1.20;;;;;;;;;;7390035;19;20014;-76
2022/05/20 08:38:34;;;;;;;2.33;1.20;;;;;;;;;;7389053;19;20750;-76
2022/05/20 08:41:00;;;;;;;5.88;1.27;;;;;;;;;;7386331;19;19999;-76
2022/05/20 08:43:30;;;;;;;1.80;1.15;;;;;;;;;;7386310;19;20031;-76
2022/05/20 08:45:55;;;;;;;2.40;1.60;;;;;;;;;;7387890;19;20003;-76
2022/05/20 08:48:21;;;;;;;2.70;1.30;;;;;;;;;;7387798;19;20042;-77
2022/05/20 08:50:52;;;;;;;2.67;1.60;;;;;;;;;;7386083;19;20450;-76
2022/05/20 08:53:36;;;;;;;1.60;1.20;;;;;;;;;;7384103;19;20395;-76
2022/05/20 08:56:08;;;;;;;1.60;1.35;;;;;;;;;;7388597;19;20046;-76
2022/05/20 08:58:36;;;;;;;1.30;1.20;;;;;;;;;;7389063;19;20432;-76
2022/05/20 09:01:01;;;;;;;1.00;1.00;;;;;;;;;;7387845;19;20031;-76
2022/05/20 09:03:26;;;;;;;2.00;1.30;;;;;;;;;;7388804;19;20018;-76
2022/05/20 09:06:06;;;;;;;1.33;1.20;;;;;;;;;;7388811;19;20011;-76
2022/05/20 09:08:33;;;;;;;5.40;1.30;;;;;;;;;;7389011;19;20003;-76
2022/05/20 09:11:00;;;;;;;2.70;1.20;;;;;;;;;;7386021;19;20015;-76
2022/05/20 09:16:15;;;;;;;1.50;1.40;;;;;;;;;;7386947;19;20025;-77
2022/05/20 09:18:43;;;;;;;2.90;1.40;;;;;;;;;;7389156;19;19998;-76
2022/05/20 09:21:24;;;;;;;2.03;1.23;;;;;;;;;;7387519;19;20089;-76
2022/05/20 09:23:55;;;;;;;1.95;1.20;;;;;;;;;;7388885;19;20517;-76
2022/05/20 09:26:30;;;;;;;2.10;1.60;;;;;;;;;;7387783;19;20484;-76
2022/05/20 09:29:05;;;;;;;;;;;;;;;;;;7388637;19;20447;-77
2022/05/20 09:31:43;;;;;;;1.42;1.33;;;;;;;;;;7385101;19;19922;-77
2022/05/20 09:34:30;;;;;;;3.25;1.42;;;;;;;;;;7385884;19;20014;-76
2022/05/20 09:37:03;;;;;;;2.83;1.15;;;;;;;;;;7387597;19;20066;-76
2022/05/20 09:39:42;;;;;;;1.65;1.50;;;;;;;;;;7388438;19;20078;-76
2022/05/20 09:42:19;;;;;;;4.80;1.50;;;;;;;;;;7391302;19;20010;-76
2022/05/20 09:44:50;;;;;;;5.78;1.52;;;;;;;;;;7392814;19;20009;-77
2022/05/20 09:47:28;;;;;;;3.00;1.48;;;;;;;;;;7393255;19;20006;-76
2022/05/20 09:50:24;;;;;;;4.28;1.38;;;;;;;;;;7392954;19;20018;-76
2022/05/20 09:52:59;;;;;;;3.72;1.50;;;;;;;;;;7391208;19;20371;-76
2022/05/20 09:55:32;;;;;;;1.60;1.38;;;;;;;;;;7396416;19;20319;-76
2022/05/20 09:58:14;;;;;;;1.60;1.25;;;;;;;;;;7395252;19;20017;-77
2022/05/20 10:00:53;;;;;;;2.33;1.38;;;;;;;;;;7396355;19;20151;-79
2022/05/20 10:03:34;;;;;;;3.80;1.38;;;;;;;;;;7392085;19;20021;-77
2022/05/20 10:06:18;;;;;;;3.03;1.63;;;;;;;;;;7394161;19;20002;-76
2022/05/20 10:09:02;;;;;;;4.55;1.70;;;;;;;;;;7393726;19;20075;-77
2022/05/20 10:11:35;;;;;;;5.13;1.83;;;;;;;;;;7391352;19;20044;-77
2022/05/20 10:14:14;;;;;;;2.80;1.80;;;;;;;;;;7389730;19;20017;-77
2022/05/20 10:16:54;;;;;;;2.13;1.50;;;;;;;;;;7393253;19;20754;-77
2022/05/20 10:19:30;;;;;;;5.22;1.50;;;;;;;;;;7393775;19;20015;-77
2022/05/20 10:22:10;;;;;;;2.88;1.33;;;;;;;;;;7383864;19;20110;-77
2022/05/20 10:24:49;;;;;;;3.13;1.50;;;;;;;;;;7394264;19;20038;-77
2022/05/20 10:27:32;;;;;;;1.83;1.40;;;;;;;;;;7391717;19;20110;-77
2022/05/20 10:33:01;;;;;;;3.22;1.60;;;;;;;;;;7390820;19;20509;-76
2022/05/20 10:36:00;;;;;;;2.70;1.55;;;;;;;;;;7393036;19;20006;-77
2022/05/20 10:38:49;;;;;;;2.15;1.55;;;;;;;;;;7394867;19;20062;-77
2022/05/20 10:41:23;;;;;;;2.15;1.48;;;;;;;;;;7390395;19;20651;-77
2022/05/20 10:50:15;;;;;;;1.50;1.20;;;;;;;;;;7393440;19;20472;-76
2022/05/20 10:52:49;;;;;;;2.65;1.50;;;;;;;;;;7389334;19;20481;-76
2022/05/20 10:55:31;;;;;;;2.55;1.60;;;;;;;;;;7390311;19;20057;-77
2022/05/20 10:58:09;;;;;;;5.53;1.50;;;;;;;;;;7390371;19;20095;-76
2022/05/20 11:00:52;;;;;;;3.25;1.20;;;;;;;;;;7387826;19;20073;-77
2022/05/20 11:03:32;;;;;;;2.63;1.48;;;;;;;;;;7389651;19;20026;-77
2022/05/20 11:06:03;;;;;;;3.00;1.55;;;;;;;;;;7392242;19;20006;-76
2022/05/20 11:08:56;;;;;;;4.07;1.48;;;;;;;;;;7388290;19;20024;-76
2022/05/20 11:11:40;;;;;;;3.40;1.52;;;;;;;;;;7388794;19;20099;-77
2022/05/20 11:14:14;;;;;;;4.78;1.48;;;;;;;;;;7390641;19;20488;-77
2022/05/20 11:17:33;;;;;;;2.25;1.33;;;;;;;;;;7388382;19;20021;-76
2022/05/20 11:20:31;;;;;;;4.28;1.40;;;;;;;;;;7386905;19;20040;-77
2022/05/20 11:23:21;;;;;;;1.50;1.30;;;;;;;;;;7389112;19;20482;-77
2022/05/20 11:26:00;;;;;;;1.98;1.35;;;;;;;;;;7388855;19;20022;-77
2022/05/20 11:28:57;;;;;;;2.55;1.40;;;;;;;;;;7391854;19;20010;-77
2022/05/20 11:31:45;;;;;;;2.90;1.75;;;;;;;;;;7388564;19;20014;-77
2022/05/20 11:34:35;;;;;;;2.92;1.33;;;;;;;;;;7391489;19;20007;-77
2022/05/20 11:37:22;;;;;;;1.83;1.35;;;;;;;;;;7388352;19;20486;-78
2022/05/20 11:40:06;;;;;;;2.42;1.40;;;;;;;;;;7391441;19;20021;-77
2022/05/20 11:42:53;;;;;;;1.85;1.30;;;;;;;;;;7388605;19;20033;-80
2022/05/20 11:45:31;;;;;;;2.53;1.30;;;;;;;;;;7385582;19;20031;-78
2022/05/20 11:48:02;;;;;;;4.72;1.20;;;;;;;;;;7392019;19;20011;-78
2022/05/20 11:50:49;;;;;;;3.33;1.42;;;;;;;;;;7390503;19;20658;-78
2022/05/20 11:53:28;;;;;;;5.57;1.42;;;;;;;;;;7390370;19;20063;-79
2022/05/20 11:56:02;;;;;;;1.50;1.23;;;;;;;;;;7392472;19;20002;-79
2022/05/20 11:58:35;;;;;;;1.50;1.02;;;;;;;;;;7393281;19;20025;-79
2022/05/20 12:01:02;;;;;;;2.63;1.48;;;;;;;;;;7389932;19;20014;-79
2022/05/20 12:04:06;;;;;;;3.85;1.40;;;;;;;;;;7388511;19;20010;-78
2022/05/20 12:06:20;;;;;;;4.20;1.60;;;;;;;;;;7391647;19;20003;-78
2022/05/20 12:08:48;;;;;;;2.95;1.40;;;;;;;;;;7391151;19;20018;-78
2022/05/20 12:11:24;;;;;;;4.22;1.33;;;;;;;;;;7391915;19;20011;-79
2022/05/20 12:14:08;;;;;;;1.77;1.10;;;;;;;;;;7390340;19;20032;-79
2022/05/20 12:16:53;;;;;;;;;;;;;;;;;;7389472;19;20022;-80
2022/05/20 12:24:52;;;;;;;1.73;1.30;;;;;;;;;;7385883;19;20498;-80
2022/05/20 12:27:21;;;;;;;1.90;1.52;;;;;;;;;;7388021;19;20011;-79
2022/05/20 12:29:58;;;;;;;6.03;1.92;;;;;;;;;;7391220;19;20074;-79
2022/05/20 12:32:34;;;;;;;2.67;1.38;;;;;;;;;;7388069;19;20506;-78
2022/05/20 12:35:17;;;;;;;3.78;1.30;;;;;;;;;;7388346;19;20002;-78
2022/05/20 12:37:42;;;;;;;3.72;1.58;;;;;;;;;;7387560;19;20011;-79
2022/05/20 12:40:20;;;;;;;3.22;1.50;;;;;;;;;;7388730;19;20449;-78
2022/05/20 12:42:59;;;;;;;1.92;1.40;;;;;;;;;;7387060;19;20011;-77
2022/05/20 12:45:26;;;;;;;2.97;1.30;;;;;;;;;;7388797;19;20026;-78
2022/05/20 12:47:51;;;;;;;2.08;1.27;;;;;;;;;;7390535;19;20006;-79
2022/05/20 12:50:16;;;;;;;2.97;1.17;;;;;;;;;;7389590;19;20014;-77
2022/05/20 12:52:51;;;;;;;2.93;1.47;;;;;;;;;;7390952;19;20023;-77
2022/05/20 12:55:34;;;;;;;4.43;1.30;;;;;;;;;;7387769;19;20018;-78
2022/05/20 12:58:05;;;;;;;2.10;1.13;;;;;;;;;;7388363;19;20425;-78
2022/05/20 13:00:41;;;;;;;3.97;1.48;;;;;;;;;;7387161;19;20021;-78
2022/05/20 13:03:15;;;;;;;4.72;1.48;;;;;;;;;;7388822;19;20014;-77
2022/05/20 13:06:00;;;;;;;4.10;1.40;;;;;;;;;;7382420;19;20087;-78
2022/05/20 13:08:33;;;;;;;2.70;1.30;;;;;;;;;;7387886;19;20026;-78
2022/05/20 13:11:10;;;;;;;1.73;1.30;;;;;;;;;;7384671;19;20028;-78
2022/05/20 13:13:36;;;;;;;2.00;1.30;;;;;;;;;;7386219;19;20916;-78
2022/05/20 13:16:04;;;;;;;2.00;1.60;;;;;;;;;;7392634;19;20018;-78
2022/05/20 13:18:35;;;;;;;2.10;1.42;;;;;;;;;;7398401;19;20014;-78
2022/05/20 13:21:39;;;;;;;3.85;1.23;;;;;;;;;;7393827;19;20017;-78
2022/05/20 13:24:14;;;;;;;1.45;1.05;;;;;;;;;;7390624;19;20121;-78
2022/05/20 13:26:41;;;;;;;3.63;1.50;;;;;;;;;;7396053;19;20034;-78
2022/05/20 13:29:20;;;;;;;6.40;1.98;;;;;;;;;;7396290;19;20128;-77
2022/05/20 13:31:45;;;;;;;2.22;1.05;;;;;;;;;;7388537;19;20442;-78
2022/05/20 13:34:12;;;;;;;5.70;1.38;;;;;;;;;;7394871;19;20013;-78
2022/05/20 13:36:43;;;;;;;3.38;1.30;;;;;;;;;;7396868;19;20015;-78
2022/05/20 13:39:14;;;;;;;1.15;1.05;;;;;;;;;;7397015;19;20078;-78
2022/05/20 13:41:39;;;;;;;2.25;1.40;;;;;;;;;;7391031;19;20018;-76
2022/05/20 13:44:06;;;;;;;1.73;1.20;;;;;;;;;;7395393;19;20054;-76
2022/05/20 13:49:21;;;;;;;5.55;1.33;;;;;;;;;;7394682;19;20506;-72
2022/05/20 13:52:05;;;;;;;6.93;1.38;;;;;;;;;;7387177;19;20014;-75
2022/05/20 13:54:35;;;;;;;2.00;1.10;;;;;;;;;;7389483;19;20018;-77
2022/05/20 13:57:12;;;;;;;12.18;1.67;;;;;;;;;;7392839;19;20022;-77
2022/05/20 13:59:41;;;;;;;2.88;1.00;;;;;;;;;;7395973;19;20036;-77
2022/05/20 14:02:10;;;;;;;3.70;1.30;;;;;;;;;;7387140;19;20687;-77
2022/05/20 14:04:50;;;;;;;3.53;1.00;;;;;;;;;;7393819;19;20014;-76
2022/05/20 14:07:30;;;;;;;3.83;1.38;;;;;;;;;;7387939;19;20017;-75
2022/05/20 14:10:08;;;;;;;3.97;1.30;;;;;;;;;;7389095;19;20014;-76
2022/05/20 14:12:44;;;;;;;1.85;1.10;;;;;;;;;;7386648;19;20027;-76
2022/05/20 14:15:28;;;;;;;2.80;1.50;;;;;;;;;;7383158;19;20071;-74
2022/05/20 14:18:19;;;;;;;2.95;1.33;;;;;;;;;;7393545;19;20014;-77
2022/05/20 14:20:47;;;;;;;3.30;1.50;;;;;;;;;;7390764;19;20035;-77
2022/05/20 14:23:18;;;;;;;2.35;1.02;;;;;;;;;;7389485;19;20030;-77
2022/05/20 14:25:52;;;;;;;1.70;1.10;;;;;;;;;;7387015;19;20011;-78
2022/05/20 14:28:34;;;;;;;2.10;1.05;;;;;;;;;;7390978;19;20110;-77
2022/05/20 14:31:00;;;;;;;2.88;1.10;;;;;;;;;;7384022;19;20148;-77
2022/05/20 14:33:31;;;;;;;4.03;1.10;;;;;;;;;;7388516;19;20010;-77
2022/05/20 14:36:00;;;;;;;8.80;1.85;;;;;;;;;;7393116;19;20014;-76
2022/05/20 14:38:38;;;;;;;2.22;1.20;;;;;;;;;;7389557;19;20035;-77
2022/05/20 14:41:04;;;;;;;2.05;0.98;;;;;;;;;;7385770;19;20081;-77
2022/05/20 14:43:36;;;;;;;2.58;1.20;;;;;;;;;;7391771;19;20003;-76
2022/05/20 14:46:05;;;;;;;2.25;1.20;;;;;;;;;;7388345;19;20010;-77
2022/05/20 14:48:40;;;;;;;4.50;1.35;;;;;;;;;;7387906;19;20018;-77
2022/05/20 14:51:12;;;;;;;8.40;1.27;;;;;;;;;;7387654;19;20022;-76
2022/05/20 14:53:41;;;;;;;3.55;1.20;;;;;;;;;;7389765;19;20343;-77
2022/05/20 14:56:36;;;;;;;7.03;1.25;;;;;;;;;;7390829;19;20014;-77
2022/05/20 14:59:01;;;;;;;2.25;1.25;;;;;;;;;;7389761;19;20010;-75
2022/05/20 15:01:29;;;;;;;1.80;1.23;;;;;;;;;;7378151;19;20034;-76
2022/05/20 15:03:54;;;;;;;4.57;1.77;;;;;;;;;;7385402;19;20397;-77
2022/05/20 15:06:23;;;;;;;4.60;1.50;;;;;;;;;;7382042;19;20434;-76
2022/05/20 15:08:52;;;;;;;3.08;1.30;;;;;;;;;;7390577;19;20010;-79
2022/05/20 15:11:23;;;;;;;1.67;1.17;;;;;;;;;;7394577;19;20051;-77
2022/05/20 15:13:49;;;;;;;2.25;1.20;;;;;;;;;;7389137;19;20021;-76
2022/05/20 15:16:14;;;;;;;3.47;1.20;;;;;;;;;;7388422;19;21950;-78
2022/05/20 15:18:40;;;;;;;1.85;1.17;;;;;;;;;;7385162;19;20019;-78
2022/05/20 15:21:12;;;;;;;2.80;1.35;;;;;;;;;;7386237;19;20477;-76
2022/05/20 15:23:42;;;;;;;1.52;0.95;;;;;;;;;;7387567;19;20011;-77
2022/05/20 15:26:10;;;;;;;6.28;1.65;;;;;;;;;;7388451;19;20009;-76
2022/05/20 15:28:47;;;;;;;3.38;1.10;;;;;;;;;;7385332;19;20026;-75
2022/05/20 15:36:48;;;;;;;5.03;1.42;;;;;;;;;;7383782;19;20021;-77
2022/05/20 15:39:25;;;;;;;2.63;1.73;;;;;;;;;;7382030;19;20007;-76
2022/05/20 15:41:50;;;;;;;3.03;2.30;;;;;;;;;;7381552;19;20026;-76
2022/05/20 15:44:16;;;;;;;3.50;1.30;;;;;;;;;;7386966;19;20006;-77
2022/05/20 15:46:41;;;;;;;1.92;1.33;;;;;;;;;;7382290;19;20019;-76
2022/05/20 15:49:06;;;;;;;3.25;1.45;;;;;;;;;;7385988;19;20740;-76
2022/05/20 15:51:32;;;;;;;1.92;1.20;;;;;;;;;;7376117;19;20198;-76
2022/05/20 15:53:58;;;;;;;4.47;1.15;;;;;;;;;;7384749;19;20078;-77